KPHF METAR and TAF | Updated Today

KPHF METAR

Newport News Williamsburg International Airport

Observation time: 36 min. ago

KPHF 301654Z 21015G20KT 10SM CLR 10/M03 A3006 RMK AO2 SLP178 T01001033

Need help? Read our tutorial on how to read METARs or read the parsed version below.

Newport News Williamsburg International Airport (KPHF) METAR

  • Weather conditions on Tue, 30 Nov 2021 16:54:00 +0000 (36 min. ago):
  • Present conditions: Dry
  • Clouds: Clear skies
  • Visibility: 16093 meters
  • Wind: 210 degrees at 15 knots
  • Temperature: 10 celsius
  • Dew point: -3 celsius
  • Pressure: 30.06 inHg
  • Remarks: AO2 SLP178 T01001033


Useful to know...

KPHF TAF

Newport News Williamsburg International Airport

KPHF 301120Z 3012/0112 22007KT P6SM BKN100 FM301600 23012G22KT P6SM SCT100 FM302200 23007KT P6SM SKC
Observation time: 6:10 hr. ago
Need help? Read our tutorial on how to read TAFs or read the parsed version below.

Parsed version of TAF for Newport News Williamsburg International Airport (KPHF)

  • From 30 November at 12:00 UTC, to day 01 of the month at 12:00 UTC
  • Clouds: Broken sky at 3048 meters
  • Wind: 220 degrees at 7
  • From day 30 of the month at 16:00 UTC
  • Clouds: Scattered at 3048 meters
  • Wind: 230 degrees at 12
  • From day 30 of the month at 22:00 UTC
  • Clouds: No significant changes expected
  • Wind: 230 degrees at 7